« Back
NWS Peachtree City, Ga » Text Product » ATL Terminal Aerodrome Forecast


Printer-friendly Version
Current Version              Previous Versions:   1  2  3  4  5  6  7  8  9  

Terminal Aerodrome Forecast

418
FTUS42 KFFC 011700 RRA
TAFATL
TAF
KATL 011751Z 0118/0224 26007KT P6SM SCT050 SCT150
      TEMPO 0118/0120 VRB10KT 5SM -TSRA BKN040CB
     FM020100 20003KT P6SM FEW060 SCT150
     FM021400 29005KT P6SM SCT035 SCT150
     FM021800 28005KT P6SM SCT050 SCT150 PROB30 0219/0222 -TSRA
      BKN050CB=

USA.gov is the U.S. government's official web portal to all federal, state and local government web resources and services.